Time;durP1;ratioP1;P1;durP2;ratioP2;P2;SDS_P1;SDS_P2;PMS_P1;PMS_P2;Temp;Humidity;BMP_temperature;BMP_pressure;BME280_temperature;BME280_humidity;BME280_pressure;Samples;Min_cycle;Max_cycle;Signal;HPM_P1;HPM_P2
2021/04/12 00:00:01;;;;;;;4.60;2.45;;;;;;;22.99;51.32;101403.00;4971401;28;20045;-64
2021/04/12 00:02:54;;;;;;;5.68;2.28;;;;;;;23.04;51.20;101384.09;4971574;28;20035;-64
2021/04/12 00:05:38;;;;;;;5.07;2.30;;;;;;;23.05;51.38;101382.22;4971442;28;20379;-63
2021/04/12 00:08:16;;;;;;;5.90;2.72;;;;;;;23.09;50.49;101376.16;4993255;28;20052;-65
2021/04/12 00:10:58;;;;;;;5.57;2.38;;;;;;;23.11;50.63;101357.59;4993339;28;20037;-64
2021/04/12 00:13:41;;;;;;;5.82;2.65;;;;;;;23.11;50.62;101356.75;4993181;28;20211;-63
2021/04/12 00:16:30;;;;;;;6.40;2.20;;;;;;;23.08;50.75;101352.50;4993129;28;20097;-64
2021/04/12 00:19:01;;;;;;;5.53;2.05;;;;;;;23.07;50.26;101353.56;4993150;28;20410;-63
2021/04/12 00:21:40;;;;;;;6.53;2.28;;;;;;;22.99;50.89;101347.31;4992653;28;20073;-64
2021/04/12 00:24:21;;;;;;;5.43;2.22;;;;;;;22.92;50.62;101333.50;4993063;28;20034;-63
2021/04/12 00:27:07;;;;;;;4.32;2.33;;;;;;;22.96;51.40;101337.56;4993126;28;20026;-64
2021/04/12 00:29:44;;;;;;;4.20;2.08;;;;;;;22.95;51.74;101322.16;4978564;28;20026;-63
2021/04/12 00:32:19;;;;;;;6.88;2.03;;;;;;;22.92;52.05;101319.81;5008034;28;20022;-64
2021/04/12 00:34:59;;;;;;;5.55;1.90;;;;;;;22.93;52.10;101309.69;4993367;28;20031;-63
2021/04/12 00:37:46;;;;;;;5.38;1.80;;;;;;;22.93;51.87;101299.56;4992834;28;20109;-65
2021/04/12 00:40:17;;;;;;;6.05;2.17;;;;;;;22.92;52.51;101297.03;4992864;28;20031;-64
2021/04/12 00:43:02;;;;;;;4.47;2.03;;;;;;;22.92;52.49;101291.53;4992992;28;20069;-64
2021/04/12 00:45:37;;;;;;;4.38;1.83;;;;;;;22.94;52.82;101295.78;4992891;28;20428;-64
2021/04/12 00:48:47;;;;;;;5.97;2.20;;;;;;;22.85;52.49;101290.63;4991632;28;20030;-64
2021/04/12 00:51:28;;;;;;;5.20;2.50;;;;;;;22.68;52.12;101273.47;4970952;28;20041;-64
2021/04/12 00:54:40;;;;;;;4.78;2.08;;;;;;;22.59;51.96;101269.13;4971152;28;20034;-65
2021/04/12 00:57:09;;;;;;;5.97;2.40;;;;;;;22.48;52.26;101260.31;4894291;29;20047;-64
2021/04/12 01:00:07;;;;;;;8.25;3.28;;;;;;;22.43;51.62;101260.06;4894752;29;20067;-65
2021/04/12 01:02:47;;;;;;;5.93;2.00;;;;;;;22.39;51.12;101253.25;4894699;29;20048;-64
2021/04/12 01:05:35;;;;;;;4.68;1.92;;;;;;;22.37;50.84;101249.00;4894636;29;20036;-63
2021/04/12 01:08:27;;;;;;;6.43;2.50;;;;;;;22.36;50.22;101242.69;4894675;29;20116;-65
2021/04/12 01:11:29;;;;;;;5.68;2.10;;;;;;;22.30;50.12;101234.34;4894784;29;20168;-64
2021/04/12 01:14:09;;;;;;;4.78;1.73;;;;;;;22.30;50.47;101226.97;4894961;29;20408;-63
2021/04/12 01:17:00;;;;;;;6.20;2.10;;;;;;;22.28;50.33;101223.56;4894598;29;20032;-65
2021/04/12 01:19:58;;;;;;;6.20;2.20;;;;;;;22.26;50.11;101217.44;4894500;29;20102;-63
2021/04/12 01:22:44;;;;;;;4.78;2.08;;;;;;;22.26;50.15;101220.19;4838710;29;20518;-64
2021/04/12 01:25:54;;;;;;;6.15;2.22;;;;;;;22.24;50.01;101210.47;4838850;29;20038;-64
2021/04/12 01:28:38;;;;;;;3.38;1.88;;;;;;;22.24;50.33;101208.56;4821398;29;20250;-63
2021/04/12 01:31:25;;;;;;;4.73;2.17;;;;;;;22.24;50.04;101211.31;4838899;29;20074;-64
2021/04/12 01:34:23;;;;;;;5.40;2.13;;;;;;;22.22;50.19;101202.44;4897530;29;20681;-64
2021/04/12 01:36:55;;;;;;;4.45;2.20;;;;;;;22.23;49.59;101187.69;4916906;29;20439;-63
2021/04/12 01:39:36;;;;;;;3.25;2.08;;;;;;;22.21;49.86;101196.09;4916492;29;20044;-64
2021/04/12 01:42:30;;;;;;;4.32;1.70;;;;;;;22.20;50.56;101188.09;4916688;29;20099;-63
2021/04/12 01:45:05;;;;;;;7.22;2.03;;;;;;;22.19;50.52;101175.44;4916578;29;20124;-64
2021/04/12 01:47:50;;;;;;;4.70;1.67;;;;;;;22.17;51.01;101166.53;4916521;29;20484;-64
2021/04/12 01:50:25;;;;;;;3.47;1.88;;;;;;;22.19;50.05;101175.44;4916381;29;20072;-63
2021/04/12 01:53:54;;;;;;;5.32;2.00;;;;;;;22.18;50.51;101169.09;4916542;29;20050;-63
2021/04/12 01:56:31;;;;;;;4.20;1.95;;;;;;;22.16;50.52;101170.31;4859775;29;20060;-63
2021/04/12 01:59:38;;;;;;;4.10;1.90;;;;;;;22.18;50.18;101173.72;4909793;29;20052;-63
2021/04/12 02:02:20;;;;;;;3.90;2.13;;;;;;;22.17;49.99;101177.47;4904885;29;20032;-63
2021/04/12 02:05:06;;;;;;;5.38;2.03;;;;;;;22.13;49.47;101176.16;4916205;29;20114;-63
2021/04/12 02:07:43;;;;;;;6.90;2.10;;;;;;;22.15;49.44;101168.59;4916052;29;20043;-64
2021/04/12 02:10:27;;;;;;;4.68;1.90;;;;;;;22.12;49.32;101158.03;4915959;29;20522;-63
2021/04/12 02:13:04;;;;;;;7.60;2.30;;;;;;;22.13;49.83;101160.59;4916090;29;20428;-64
2021/04/12 02:16:03;;;;;;;5.72;2.13;;;;;;;22.11;49.71;101148.97;4916060;29;20032;-63
2021/04/12 02:18:44;;;;;;;5.10;2.33;;;;;;;22.11;50.42;101143.50;4915745;29;20044;-63
2021/04/12 02:21:27;;;;;;;6.28;2.03;;;;;;;22.13;50.44;101143.31;4915848;29;20123;-63
2021/04/12 02:24:27;;;;;;;4.55;1.85;;;;;;;22.18;50.13;101146.34;4915915;29;20038;-64
2021/04/12 02:26:52;;;;;;;6.70;2.80;;;;;;;22.16;50.64;101142.91;4915493;29;20044;-63
2021/04/12 02:29:33;;;;;;;6.40;1.83;;;;;;;22.19;51.01;101131.63;4919404;28;20038;-63
2021/04/12 02:32:07;;;;;;;6.53;2.38;;;;;;;22.24;51.40;101123.66;4976820;28;20282;-64
2021/04/12 02:34:38;;;;;;;;;;;;;;;22.27;51.99;101133.38;4995362;28;20034;-63
2021/04/12 02:37:40;;;;;;;4.82;2.47;;;;;;;22.27;52.64;101117.81;4994767;28;19913;-64
2021/04/12 02:40:22;;;;;;;8.98;2.90;;;;;;;22.30;52.71;101122.91;4953650;29;20039;-63
2021/04/12 02:43:25;;;;;;;5.95;2.50;;;;;;;22.34;53.26;101112.41;4952797;28;20042;-63
2021/04/12 02:46:12;;;;;;;7.07;2.33;;;;;;;22.36;53.07;101127.63;4953629;29;20043;-63
2021/04/12 02:48:58;;;;;;;8.10;2.85;;;;;;;22.38;53.21;101128.28;4953624;29;20038;-62
2021/04/12 02:51:33;;;;;;;6.93;2.35;;;;;;;22.35;53.41;101114.97;4953423;29;20636;-63
2021/04/12 02:54:21;;;;;;;6.10;2.35;;;;;;;22.38;53.24;101042.53;4953493;29;20039;-63
2021/04/12 02:57:20;;;;;;;9.23;3.38;;;;;;;22.44;53.55;101036.25;4952920;29;20047;-64
2021/04/12 03:00:10;;;;;;;5.95;2.33;;;;;;;22.44;53.13;101050.81;4953173;29;20110;-63
2021/04/12 03:02:59;;;;;;;5.40;2.60;;;;;;;22.32;54.07;101137.25;4953259;29;20031;-64
2021/04/12 03:06:02;;;;;;;6.78;2.72;;;;;;;22.24;54.38;101123.66;4953052;29;20027;-64
2021/04/12 03:09:15;;;;;;;5.95;2.30;;;;;;;22.22;54.56;101114.78;4953192;29;20055;-63
2021/04/12 03:12:15;;;;;;;4.95;2.10;;;;;;;22.19;54.80;101107.81;4953174;29;20031;-64
2021/04/12 03:15:05;;;;;;;6.95;2.60;;;;;;;22.08;53.75;101112.91;4953034;29;20067;-64
2021/04/12 03:17:43;;;;;;;6.18;2.90;;;;;;;22.05;53.06;101116.03;4977963;28;20447;-63
2021/04/12 03:20:26;;;;;;;6.03;2.20;;;;;;;22.01;51.85;101125.63;4993944;28;20033;-64
2021/04/12 03:23:07;;;;;;;5.22;1.92;;;;;;;21.98;51.74;101104.94;4994047;28;20065;-63
2021/04/12 03:25:51;;;;;;;6.22;2.78;;;;;;;21.91;52.11;101080.22;4993906;28;20044;-63
2021/04/12 03:28:27;;;;;;;4.20;2.00;;;;;;;21.91;51.42;101080.22;4993379;28;20363;-64
2021/04/12 03:31:21;;;;;;;7.75;2.72;;;;;;;21.90;51.43;101078.53;4993846;28;20119;-63
2021/04/12 03:34:19;;;;;;;5.95;2.25;;;;;;;21.89;51.31;101075.97;4955550;28;20341;-63
2021/04/12 03:37:05;;;;;;;6.82;2.53;;;;;;;21.87;51.18;101067.97;4971382;28;20046;-64
2021/04/12 03:39:56;;;;;;;6.03;2.20;;;;;;;21.86;51.43;101066.25;4971862;28;20078;-63
2021/04/12 03:42:55;;;;;;;9.23;3.03;;;;;;;21.86;51.38;101059.94;4971700;28;20057;-64
2021/04/12 03:46:08;;;;;;;7.55;2.78;;;;;;;21.85;51.15;101059.09;4971678;28;20113;-63
2021/04/12 03:48:36;;;;;;;5.82;2.10;;;;;;;21.85;51.06;101048.16;4914421;29;20042;-63
2021/04/12 03:51:32;;;;;;;6.05;2.25;;;;;;;21.86;51.44;101049.00;4914127;29;20043;-64
2021/04/12 03:54:35;;;;;;;5.55;2.40;;;;;;;21.87;51.75;101059.75;4914281;29;20032;-63
2021/04/12 03:57:38;;;;;;;6.35;2.78;;;;;;;21.86;51.57;101076.38;4913677;29;20047;-63
2021/04/12 04:00:33;;;;;;;6.40;2.60;;;;;;;21.89;51.07;101096.00;4914130;29;20067;-64
2021/04/12 04:03:25;;;;;;;10.30;3.15;;;;;;;22.95;50.20;101049.88;4914212;29;20550;-63
2021/04/12 04:06:11;;;;;;;7.72;2.72;;;;;;;23.33;49.90;101055.91;4913927;29;20063;-63
2021/04/12 04:09:05;;;;;;;5.25;2.47;;;;;;;23.60;50.00;101054.25;4914127;29;20464;-64
2021/04/12 04:11:43;;;;;;;6.40;2.92;;;;;;;24.06;50.52;101067.41;4944387;29;20039;-63
2021/04/12 04:14:17;;;;;;;8.07;3.67;;;;;;;24.33;48.83;101093.09;4952165;29;20119;-64
2021/04/12 04:16:57;;;;;;;6.30;2.90;;;;;;;24.38;47.47;101096.94;4952106;29;20039;-63
2021/04/12 04:19:37;;;;;;;7.43;3.30;;;;;;;24.49;46.75;101065.25;4951914;29;20050;-63
2021/04/12 04:22:19;;;;;;;7.70;2.85;;;;;;;24.48;47.45;101061.66;4952145;29;20028;-64
2021/04/12 04:25:00;;;;;;;6.68;3.13;;;;;;;24.55;46.84;101070.78;4963254;28;20121;-63
2021/04/12 04:28:09;;;;;;;8.15;3.28;;;;;;;24.65;46.86;101059.38;4978384;28;20031;-64
2021/04/12 04:31:01;;;;;;;4.78;2.55;;;;;;;24.75;46.55;101048.84;4932803;29;20054;-63
2021/04/12 04:33:26;;;;;;;9.10;3.38;;;;;;;24.76;46.78;101050.53;4928372;29;20051;-63
2021/04/12 04:36:04;;;;;;;9.50;3.20;;;;;;;24.78;46.86;101048.41;4932925;29;20031;-64
2021/04/12 04:38:56;;;;;;;7.57;2.80;;;;;;;24.85;46.73;101057.50;4932748;29;20118;-64
2021/04/12 04:41:30;;;;;;;8.27;2.83;;;;;;;24.93;46.07;101061.13;4932634;29;20090;-64
2021/04/12 04:43:58;;;;;;;;;;;;;;;24.96;45.63;101055.22;4933269;29;20040;-64
2021/04/12 04:46:35;;;;;;;6.55;2.80;;;;;;;24.97;46.57;101057.75;4938296;29;19910;-64
2021/04/12 04:49:37;;;;;;;6.00;2.45;;;;;;;25.02;46.98;101058.00;4951910;29;20534;-63
2021/04/12 04:52:31;;;;;;;7.78;2.80;;;;;;;25.02;47.06;101055.25;4951839;29;20091;-63
2021/04/12 04:55:17;;;;;;;6.55;2.60;;;;;;;25.08;47.76;101053.56;4951564;29;20483;-64
2021/04/12 04:57:59;;;;;;;7.82;3.53;;;;;;;25.09;48.25;101049.75;4951446;29;20039;-63
2021/04/12 05:00:33;;;;;;;7.40;2.67;;;;;;;25.23;47.55;101039.59;4951615;29;20074;-64
2021/04/12 05:03:16;;;;;;;6.57;2.47;;;;;;;25.15;49.00;101032.41;4951817;29;20035;-64
2021/04/12 05:06:00;;;;;;;6.20;3.05;;;;;;;25.17;49.34;101030.28;4954378;28;20505;-64
2021/04/12 05:08:52;;;;;;;7.90;3.05;;;;;;;25.18;49.46;101026.47;4996693;28;20113;-64
2021/04/12 05:11:44;;;;;;;10.48;3.45;;;;;;;25.26;49.10;101037.28;4996347;28;20027;-63
2021/04/12 05:14:28;;;;;;;7.40;3.20;;;;;;;25.25;48.94;101041.09;4996655;28;20106;-64
2021/04/12 05:17:11;;;;;;;11.07;4.43;;;;;;;25.27;49.42;101041.72;4996284;28;20032;-63
2021/04/12 05:19:46;;;;;;;11.05;4.00;;;;;;;25.30;50.13;101035.78;4996303;28;20263;-64
2021/04/12 05:22:16;;;;;;;;;;;;;;;25.36;50.02;101031.31;4996613;28;20030;-64
2021/04/12 05:25:06;;;;;;;8.40;3.65;;;;;;;25.35;49.20;101024.97;4996545;28;19967;-63
2021/04/12 05:28:09;;;;;;;10.52;3.60;;;;;;;25.33;49.91;101029.84;4990828;28;20019;-65
2021/04/12 05:30:59;;;;;;;8.82;4.10;;;;;;;25.38;49.79;101019.06;4976576;28;20440;-64
2021/04/12 05:33:42;;;;;;;12.13;4.05;;;;;;;25.37;49.89;101019.28;4976563;28;20027;-63
2021/04/12 05:36:26;;;;;;;9.73;3.72;;;;;;;25.34;50.76;101031.53;4976544;28;20039;-64
2021/04/12 05:38:51;;;;;;;9.40;3.67;;;;;;;25.37;50.29;101033.88;4976510;28;20027;-63
2021/04/12 05:41:28;;;;;;;10.17;3.37;;;;;;;25.40;49.66;101029.84;4976164;28;20023;-64
2021/04/12 05:44:08;;;;;;;8.73;3.45;;;;;;;25.50;49.76;101031.09;4995668;28;20264;-64
2021/04/12 05:46:48;;;;;;;8.15;3.63;;;;;;;25.54;49.41;101030.69;4994568;28;20022;-64
2021/04/12 05:49:28;;;;;;;9.20;3.63;;;;;;;25.64;49.31;101014.56;4995426;28;20494;-64
2021/04/12 05:52:16;;;;;;;10.05;3.70;;;;;;;25.65;48.77;100999.72;4995378;28;20547;-63
2021/04/12 05:55:00;;;;;;;8.20;3.78;;;;;;;25.69;49.12;100978.97;4995444;28;20049;-65
2021/04/12 05:57:49;;;;;;;7.65;3.33;;;;;;;25.55;49.63;100977.31;4995504;28;20493;-65
2021/04/12 06:00:40;;;;;;;5.60;2.50;;;;;;;25.38;49.72;100982.44;4993670;28;20486;-64
2021/04/12 06:03:14;;;;;;;6.15;3.00;;;;;;;25.38;49.47;100988.78;4995510;28;20500;-65
2021/04/12 06:05:52;;;;;;;11.07;3.65;;;;;;;25.30;50.02;100991.75;5010299;28;20073;-64
2021/04/12 06:08:20;;;;;;;9.15;3.38;;;;;;;25.25;49.31;100980.56;4995290;28;20362;-65
2021/04/12 06:11:00;;;;;;;8.85;3.50;;;;;;;25.22;48.97;100983.72;4995361;28;20022;-65
2021/04/12 06:13:44;;;;;;;6.82;3.13;;;;;;;25.24;48.88;100987.13;4994246;28;20057;-64
2021/04/12 06:16:22;;;;;;;10.07;3.58;;;;;;;25.22;48.55;100988.38;4993792;28;20520;-65
2021/04/12 06:19:16;;;;;;;10.98;4.00;;;;;;;25.22;48.51;100994.75;4993045;28;20042;-64
2021/04/12 06:21:50;;;;;;;8.47;3.10;;;;;;;25.27;48.33;100997.69;4993307;28;20084;-65
2021/04/12 06:24:21;;;;;;;;;;;;;;;25.27;48.30;100992.19;4995180;28;20839;-64
2021/04/12 06:27:11;;;;;;;9.85;3.95;;;;;;;25.23;48.08;100996.44;4994366;28;20289;-65
2021/04/12 06:29:50;;;;;;;12.35;4.57;;;;;;;25.23;47.84;101007.44;4993877;28;20037;-64
2021/04/12 06:32:49;;;;;;;12.50;4.80;;;;;;;25.24;47.97;101020.13;5006140;28;20061;-63
2021/04/12 06:35:33;;;;;;;10.07;4.50;;;;;;;25.13;47.62;101018.00;4992233;28;20073;-65
2021/04/12 06:38:44;;;;;;;11.27;4.68;;;;;;;25.11;46.38;101017.38;4986716;28;20026;-62
2021/04/12 06:41:33;;;;;;;9.10;3.97;;;;;;;24.97;46.43;101013.75;4989167;28;20074;-59
2021/04/12 06:44:29;;;;;;;6.47;3.33;;;;;;;24.90;46.34;101041.25;4985367;28;20451;-60
2021/04/12 06:47:14;;;;;;;7.72;3.28;;;;;;;24.85;46.77;101056.66;4993683;28;20033;-59
2021/04/12 06:50:17;;;;;;;5.70;2.92;;;;;;;24.79;47.54;101050.13;4993092;28;20034;-60
2021/04/12 06:53:02;;;;;;;6.47;3.10;;;;;;;24.82;47.68;101044.19;4987845;28;20031;-63
2021/04/12 06:55:40;;;;;;;;;;;;;;;24.80;47.62;101043.56;4980574;28;20121;-61
2021/04/12 06:58:41;;;;;;;4.43;2.65;;;;;;;24.72;47.60;101057.50;4982782;28;20384;-62
2021/04/12 07:01:53;;;;;;;4.55;2.47;;;;;;;24.59;47.66;101043.72;5006512;28;20033;-60
2021/04/12 07:04:33;;;;;;;4.53;2.38;;;;;;;24.48;48.00;101052.56;4991022;28;20075;-60
2021/04/12 07:07:35;;;;;;;3.88;1.67;;;;;;;24.45;47.48;101047.50;5006578;28;20026;-60
2021/04/12 07:10:36;;;;;;;3.88;2.22;;;;;;;24.44;48.18;101045.81;4994155;28;20026;-60
2021/04/12 07:13:13;;;;;;;2.95;1.55;;;;;;;24.48;47.96;101053.41;4992505;28;20164;-59
2021/04/12 07:16:14;;;;;;;2.30;1.48;;;;;;;24.52;47.42;101064.84;4992157;28;20088;-59
2021/04/12 07:19:09;;;;;;;2.85;1.60;;;;;;;24.46;48.76;101062.94;4991192;28;20065;-59
2021/04/12 07:22:17;;;;;;;2.60;1.60;;;;;;;24.46;48.19;101068.44;4974446;28;20040;-59
2021/04/12 07:25:22;;;;;;;4.10;1.90;;;;;;;24.48;48.37;101063.56;4996805;28;20532;-59
2021/04/12 07:27:47;;;;;;;;;;;;;;;24.52;48.73;101070.34;4988636;28;20045;-59
2021/04/12 07:30:37;;;;;;;4.70;1.95;;;;;;;24.46;48.32;101082.16;4992404;28;19913;-59
2021/04/12 07:33:20;;;;;;;6.88;2.85;;;;;;;24.56;47.25;101088.13;4983732;28;20081;-59
2021/04/12 07:36:00;;;;;;;6.25;2.92;;;;;;;24.64;47.29;101082.44;4992316;28;20040;-59
2021/04/12 07:38:44;;;;;;;7.30;3.25;;;;;;;24.64;46.28;101090.69;4992320;28;20038;-59
2021/04/12 07:41:27;;;;;;;8.43;3.50;;;;;;;24.64;46.58;101098.06;4986600;28;20058;-59
2021/04/12 07:44:11;;;;;;;9.63;4.00;;;;;;;24.67;46.94;101101.25;4991133;28;20050;-59
2021/04/12 07:47:10;;;;;;;8.50;3.80;;;;;;;24.63;46.74;101105.47;4984747;28;20060;-59
2021/04/12 07:49:38;;;;;;;9.55;4.15;;;;;;;24.73;46.57;101124.34;4987790;28;20054;-59
2021/04/12 07:52:34;;;;;;;11.27;5.22;;;;;;;24.73;46.42;101116.94;4980012;28;20045;-58
2021/04/12 07:55:27;;;;;;;9.68;4.45;;;;;;;24.75;47.60;101103.84;4987134;28;20030;-59
2021/04/12 07:58:30;;;;;;;9.10;4.28;;;;;;;24.82;47.81;101110.19;4989382;28;20498;-60
2021/04/12 08:01:14;;;;;;;8.98;4.07;;;;;;;24.87;47.84;101110.44;4989117;28;20057;-60
2021/04/12 08:04:17;;;;;;;9.90;4.50;;;;;;;24.85;47.80;101112.50;4988660;28;20034;-60
2021/04/12 08:07:00;;;;;;;6.90;3.65;;;;;;;24.89;47.92;101116.56;4984959;28;20029;-60
2021/04/12 08:09:46;;;;;;;5.90;3.03;;;;;;;24.88;47.96;101114.03;4987755;28;20041;-60
2021/04/12 08:12:49;;;;;;;8.02;3.30;;;;;;;24.86;48.57;101124.38;4985093;28;20023;-60
2021/04/12 08:15:51;;;;;;;6.72;3.28;;;;;;;24.75;48.74;101134.06;4988286;28;20221;-60
2021/04/12 08:18:32;;;;;;;5.10;2.70;;;;;;;24.76;48.10;101127.53;5001841;28;20022;-60
2021/04/12 08:21:08;;;;;;;6.55;3.13;;;;;;;24.83;48.31;101117.38;4985528;28;20076;-60
2021/04/12 08:23:52;;;;;;;5.95;2.70;;;;;;;25.09;48.65;101121.28;4988658;28;20038;-61
2021/04/12 08:26:43;;;;;;;8.18;2.90;;;;;;;24.92;50.32;101131.78;4988446;28;20026;-60
2021/04/12 08:29:27;;;;;;;5.35;2.55;;;;;;;25.05;49.73;101120.84;4986584;28;20033;-61
2021/04/12 08:32:27;;;;;;;4.65;2.33;;;;;;;25.13;51.08;101139.06;4983142;28;20033;-61
2021/04/12 08:35:08;;;;;;;4.70;2.85;;;;;;;25.23;50.64;101147.75;4985547;28;20533;-61
2021/04/12 08:38:08;;;;;;;5.88;2.42;;;;;;;25.22;51.02;101159.81;4982835;28;20026;-61
2021/04/12 08:40:54;;;;;;;4.80;2.25;;;;;;;25.15;51.68;101169.94;4988754;28;20117;-61
2021/04/12 08:43:57;;;;;;;3.58;1.80;;;;;;;25.10;52.32;101167.84;4989907;28;20026;-61
2021/04/12 08:46:27;;;;;;;3.88;2.10;;;;;;;25.19;51.29;101176.72;4989168;28;20141;-60
2021/04/12 08:49:05;;;;;;;4.90;1.88;;;;;;;25.16;50.54;101185.41;4988245;28;20073;-61
2021/04/12 08:52:08;;;;;;;3.95;1.70;;;;;;;25.13;49.49;101188.56;4990887;28;20034;-60
2021/04/12 08:54:54;;;;;;;2.95;1.90;;;;;;;25.19;48.94;101184.97;4992040;28;20022;-60
2021/04/12 08:57:49;;;;;;;3.45;1.55;;;;;;;25.18;48.97;101180.53;4953239;28;20054;-60
2021/04/12 09:00:46;;;;;;;2.60;1.55;;;;;;;25.25;48.75;101188.81;4938078;29;20130;-61
2021/04/12 09:03:44;;;;;;;2.95;1.95;;;;;;;25.23;49.77;101183.53;4951522;28;20397;-60
2021/04/12 09:06:25;;;;;;;2.72;1.40;;;;;;;25.27;50.03;101194.97;4952633;29;20027;-60
2021/04/12 09:09:12;;;;;;;1.95;1.38;;;;;;;25.32;49.39;101198.75;4952926;29;20027;-60
2021/04/12 09:11:58;;;;;;;4.13;1.73;;;;;;;25.26;49.19;101194.09;4952286;29;20091;-60
2021/04/12 09:14:57;;;;;;;2.75;1.50;;;;;;;25.30;48.42;101200.88;4953394;29;20087;-60
2021/04/12 09:17:50;;;;;;;3.72;1.90;;;;;;;25.30;49.14;101208.28;4951264;28;20067;-60
2021/04/12 09:20:46;;;;;;;2.40;1.40;;;;;;;25.26;48.89;101213.38;4952412;28;20509;-61
2021/04/12 09:23:27;;;;;;;1.55;1.00;;;;;;;25.27;47.66;101217.81;4954228;28;20027;-60
2021/04/12 09:26:31;;;;;;;4.43;1.52;;;;;;;25.26;47.51;101221.63;4950177;28;20074;-60
2021/04/12 09:29:39;;;;;;;2.83;1.48;;;;;;;25.21;48.46;101221.41;4878522;29;20033;-60
2021/04/12 09:32:23;;;;;;;2.28;0.98;;;;;;;25.33;46.93;101218.88;4866458;29;20536;-60
2021/04/12 09:35:21;;;;;;;3.80;1.50;;;;;;;25.27;47.45;101236.22;4898998;29;20139;-61
2021/04/12 09:38:01;;;;;;;2.08;1.30;;;;;;;25.29;46.59;101232.22;4913268;29;20044;-60
2021/04/12 09:40:41;;;;;;;3.75;1.60;;;;;;;25.32;47.88;101236.44;4913687;29;20047;-61
2021/04/12 09:43:22;;;;;;;5.55;1.50;;;;;;;25.36;48.62;101238.59;4913227;29;20067;-60
2021/04/12 09:46:06;;;;;;;5.32;2.08;;;;;;;25.38;47.66;101239.22;4913077;29;20036;-60
2021/04/12 09:48:36;;;;;;;3.42;1.58;;;;;;;25.41;48.40;101249.81;4912917;29;20033;-60
2021/04/12 09:51:35;;;;;;;2.90;1.63;;;;;;;25.43;48.61;101250.44;4913306;29;20075;-61
2021/04/12 09:54:32;;;;;;;4.20;2.15;;;;;;;25.43;48.95;101250.44;4911641;29;20511;-61
2021/04/12 09:57:15;;;;;;;3.58;1.50;;;;;;;25.37;49.13;101244.94;4914522;29;20523;-61
2021/04/12 10:00:07;;;;;;;3.78;1.60;;;;;;;25.53;49.18;101239.06;4911361;29;20052;-61
2021/04/12 10:03:13;;;;;;;3.00;1.55;;;;;;;25.54;48.83;101250.91;4914254;29;20099;-61
2021/04/12 10:06:08;;;;;;;3.55;1.55;;;;;;;25.69;49.41;101255.16;4954224;28;20126;-60
2021/04/12 10:08:39;;;;;;;3.53;1.67;;;;;;;25.65;49.66;101239.25;4992561;28;20473;-60
2021/04/12 10:11:13;;;;;;;3.47;1.75;;;;;;;25.77;49.62;101240.38;4992889;28;20026;-60
2021/04/12 10:14:10;;;;;;;4.18;1.67;;;;;;;25.79;49.96;101246.50;4991327;28;20093;-60
2021/04/12 10:16:40;;;;;;;3.63;1.70;;;;;;;25.77;50.28;101243.13;4992785;28;20065;-60
2021/04/12 10:19:15;;;;;;;3.15;1.40;;;;;;;25.77;50.62;101245.88;4994300;28;20053;-60
2021/04/12 10:21:57;;;;;;;2.20;1.33;;;;;;;25.74;50.15;101246.28;4994276;28;20057;-61
2021/04/12 10:24:31;;;;;;;2.03;1.20;;;;;;;25.77;50.15;101251.38;4994412;28;20039;-61
2021/04/12 10:27:06;;;;;;;2.05;1.13;;;;;;;25.68;49.25;101255.38;4994895;28;20037;-61
2021/04/12 10:29:45;;;;;;;4.22;1.20;;;;;;;25.62;48.88;101254.28;4993795;28;20026;-60
2021/04/12 10:32:20;;;;;;;1.25;1.10;;;;;;;25.42;48.99;101254.25;4994827;28;20026;-60
2021/04/12 10:34:54;;;;;;;3.83;1.50;;;;;;;25.41;48.29;101249.81;4995019;28;20129;-60
2021/04/12 10:37:34;;;;;;;1.73;1.08;;;;;;;25.49;47.85;101265.28;4992637;28;20021;-60
2021/04/12 10:40:16;;;;;;;3.30;1.20;;;;;;;25.53;47.77;101263.81;4993499;28;20089;-61
2021/04/12 10:43:05;;;;;;;3.28;1.25;;;;;;;25.48;48.21;101256.16;4993484;28;20374;-61
2021/04/12 10:46:00;;;;;;;3.42;1.48;;;;;;;25.45;48.18;101259.34;4993447;28;20037;-61
2021/04/12 10:48:30;;;;;;;3.80;1.55;;;;;;;25.47;48.73;101257.22;4994588;28;20053;-61
2021/04/12 10:51:22;;;;;;;3.05;1.40;;;;;;;25.55;49.75;101269.13;4994298;28;20041;-61
2021/04/12 10:53:59;;;;;;;2.95;1.33;;;;;;;25.57;48.70;101283.53;4994600;28;20037;-60
2021/04/12 10:56:37;;;;;;;2.17;1.33;;;;;;;25.58;48.57;101285.22;4993970;28;20074;-60
2021/04/12 10:59:08;;;;;;;3.17;1.40;;;;;;;25.68;48.17;101293.94;4994405;28;20061;-60
2021/04/12 11:02:06;;;;;;;2.60;1.10;;;;;;;25.62;48.77;101297.50;4994280;28;20022;-60
2021/04/12 11:04:54;;;;;;;2.22;1.00;;;;;;;25.63;48.46;101302.78;4971268;28;20043;-60
2021/04/12 11:07:38;;;;;;;2.30;1.20;;;;;;;25.68;48.84;101310.44;4970410;28;20398;-61
2021/04/12 11:10:20;;;;;;;2.38;1.30;;;;;;;25.66;48.54;101326.31;4970883;28;20039;-60
2021/04/12 11:12:52;;;;;;;3.13;1.05;;;;;;;25.65;47.93;101314.44;4970921;28;20553;-61
2021/04/12 11:15:39;;;;;;;2.97;1.55;;;;;;;25.65;49.58;101319.09;4970773;28;20054;-61
2021/04/12 11:18:30;;;;;;;3.10;1.13;;;;;;;25.68;48.83;101324.22;4970172;28;20130;-60
2021/04/12 11:21:19;;;;;;;1.40;0.82;;;;;;;25.65;48.24;101324.59;4969329;28;20561;-60
2021/04/12 11:24:01;;;;;;;3.05;1.38;;;;;;;25.65;48.10;101352.13;4964358;28;20034;-61
2021/04/12 11:26:35;;;;;;;3.30;1.33;;;;;;;25.63;49.10;101354.25;4966994;28;20050;-60
2021/04/12 11:29:21;;;;;;;2.78;0.95;;;;;;;25.67;48.68;101358.28;4968805;28;20070;-60
2021/04/12 11:31:59;;;;;;;2.15;1.25;;;;;;;25.61;48.59;101357.22;4966732;28;20061;-60
2021/04/12 11:34:43;;;;;;;2.65;1.40;;;;;;;25.65;48.06;101363.16;4965345;28;20105;-60
2021/04/12 11:37:21;;;;;;;5.47;1.67;;;;;;;25.69;48.42;101356.19;4963475;28;20097;-60
2021/04/12 11:39:56;;;;;;;3.78;1.75;;;;;;;25.71;47.99;101367.88;4966548;28;20042;-60
2021/04/12 11:42:27;;;;;;;2.17;1.38;;;;;;;25.72;49.34;101370.44;4979160;28;20495;-60
2021/04/12 11:45:13;;;;;;;4.13;1.35;;;;;;;25.76;48.21;101377.22;4984734;28;20382;-60
2021/04/12 11:47:52;;;;;;;3.88;1.70;;;;;;;25.83;49.66;101371.72;4982144;28;20021;-60
2021/04/12 11:51:05;;;;;;;4.43;1.52;;;;;;;25.81;49.29;101390.34;4984613;28;20536;-60
2021/04/12 11:53:31;;;;;;;4.35;2.00;;;;;;;25.83;49.84;101376.38;4947004;29;20041;-60
2021/04/12 11:56:05;;;;;;;5.03;1.90;;;;;;;25.78;49.69;101388.03;4946788;29;20051;-60
2021/04/12 11:58:40;;;;;;;4.15;1.58;;;;;;;25.80;49.48;101385.91;4947895;29;20300;-60
2021/04/12 12:01:27;;;;;;;3.97;1.50;;;;;;;25.74;49.24;101389.50;4948493;29;20027;-60
2021/04/12 12:04:03;;;;;;;3.35;1.42;;;;;;;25.75;49.41;101381.03;4948514;29;20114;-60
2021/04/12 12:06:45;;;;;;;4.32;1.73;;;;;;;25.81;48.50;101372.97;4956872;28;20154;-60
2021/04/12 12:09:25;;;;;;;4.88;1.83;;;;;;;25.88;49.46;101380.22;4953416;28;20030;-59
2021/04/12 12:12:07;;;;;;;3.30;1.65;;;;;;;25.90;48.64;101389.13;4948827;29;20035;-59
2021/04/12 12:14:32;;;;;;;2.60;1.80;;;;;;;25.99;48.68;101387.84;4950094;29;20035;-59
2021/04/12 12:16:57;;;;;;;3.70;1.40;;;;;;;25.93;50.07;101399.72;4949915;28;20035;-61
2021/04/12 12:19:44;;;;;;;2.78;1.20;;;;;;;25.91;49.61;101407.34;4948916;29;20394;-61
2021/04/12 12:22:31;;;;;;;2.63;1.17;;;;;;;25.90;49.11;101400.13;4948096;28;20039;-60
2021/04/12 12:25:25;;;;;;;3.65;1.55;;;;;;;25.93;48.33;101396.97;4950130;29;20478;-59
2021/04/12 12:28:10;;;;;;;2.97;1.25;;;;;;;25.90;49.41;101411.16;4949574;29;20043;-59
2021/04/12 12:30:50;;;;;;;1.92;1.00;;;;;;;25.92;48.77;101417.28;4982216;28;20050;-59
2021/04/12 12:33:25;;;;;;;3.13;1.58;;;;;;;25.86;48.74;101415.34;4987904;28;20076;-60
2021/04/12 12:35:57;;;;;;;2.33;1.30;;;;;;;25.88;49.09;101417.94;4989972;28;20030;-60
2021/04/12 12:38:45;;;;;;;2.13;1.40;;;;;;;25.88;48.56;101418.78;4989627;28;20053;-59
2021/04/12 12:41:17;;;;;;;1.83;1.30;;;;;;;25.87;47.77;101419.00;4988575;28;20104;-60
2021/04/12 12:43:44;;;;;;;2.28;1.20;;;;;;;25.79;48.91;101426.38;4985037;28;20478;-59
2021/04/12 12:46:19;;;;;;;2.40;1.25;;;;;;;25.73;48.52;101426.34;4988960;28;20118;-60
2021/04/12 12:48:53;;;;;;;3.28;1.20;;;;;;;25.81;48.32;101428.91;4986453;28;20134;-60
2021/04/12 12:51:28;;;;;;;2.00;1.02;;;;;;;25.84;48.45;101434.00;4984277;28;20382;-60